sensor_id;sensor_type;location;lat;lon;timestamp;P1;durP1;ratioP1;P2;durP2;ratioP2
47617;SDS011;33336;36.728;-4.414;2022-10-14T00:02:05;6.78;;;2.15;;
47617;SDS011;33336;36.728;-4.414;2022-10-14T00:07:08;6.07;;;2.10;;
47617;SDS011;33336;36.728;-4.414;2022-10-14T00:12:11;5.10;;;2.05;;
47617;SDS011;33336;36.728;-4.414;2022-10-14T00:17:16;4.50;;;2.17;;
47617;SDS011;33336;36.728;-4.414;2022-10-14T00:22:18;5.15;;;1.90;;
47617;SDS011;33336;36.728;-4.414;2022-10-14T00:27:22;4.63;;;1.60;;
47617;SDS011;33336;36.728;-4.414;2022-10-14T00:32:27;6.85;;;2.45;;
47617;SDS011;33336;36.728;-4.414;2022-10-14T00:37:30;3.67;;;1.95;;
47617;SDS011;33336;36.728;-4.414;2022-10-14T00:42:33;6.75;;;2.03;;
47617;SDS011;33336;36.728;-4.414;2022-10-14T00:47:38;6.57;;;2.10;;
47617;SDS011;33336;36.728;-4.414;2022-10-14T00:52:43;6.03;;;2.25;;
47617;SDS011;33336;36.728;-4.414;2022-10-14T00:57:47;3.65;;;1.30;;
47617;SDS011;33336;36.728;-4.414;2022-10-14T01:02:52;5.20;;;1.98;;
47617;SDS011;33336;36.728;-4.414;2022-10-14T01:08:01;9.80;;;1.77;;
47617;SDS011;33336;36.728;-4.414;2022-10-14T01:13:16;4.20;;;1.70;;
47617;SDS011;33336;36.728;-4.414;2022-10-14T01:18:31;4.50;;;1.58;;
47617;SDS011;33336;36.728;-4.414;2022-10-14T01:29:39;6.32;;;2.00;;
47617;SDS011;33336;36.728;-4.414;2022-10-14T01:35:00;3.08;;;1.25;;
47617;SDS011;33336;36.728;-4.414;2022-10-14T01:40:10;5.78;;;1.80;;
47617;SDS011;33336;36.728;-4.414;2022-10-14T01:45:20;3.80;;;2.58;;
47617;SDS011;33336;36.728;-4.414;2022-10-14T01:50:24;3.67;;;2.05;;
47617;SDS011;33336;36.728;-4.414;2022-10-14T01:55:32;6.90;;;2.22;;
47617;SDS011;33336;36.728;-4.414;2022-10-14T02:00:39;7.00;;;2.45;;
47617;SDS011;33336;36.728;-4.414;2022-10-14T02:05:44;4.60;;;1.67;;
47617;SDS011;33336;36.728;-4.414;2022-10-14T02:10:56;5.60;;;1.75;;
47617;SDS011;33336;36.728;-4.414;2022-10-14T02:16:10;6.28;;;2.15;;
47617;SDS011;33336;36.728;-4.414;2022-10-14T02:21:20;2.97;;;1.92;;
47617;SDS011;33336;36.728;-4.414;2022-10-14T02:26:27;5.47;;;1.85;;
47617;SDS011;33336;36.728;-4.414;2022-10-14T02:31:34;3.25;;;1.60;;
47617;SDS011;33336;36.728;-4.414;2022-10-14T02:36:40;7.28;;;1.90;;
47617;SDS011;33336;36.728;-4.414;2022-10-14T02:41:45;2.05;;;1.20;;
47617;SDS011;33336;36.728;-4.414;2022-10-14T02:46:50;7.18;;;1.75;;
47617;SDS011;33336;36.728;-4.414;2022-10-14T02:51:53;2.95;;;1.60;;
47617;SDS011;33336;36.728;-4.414;2022-10-14T02:56:57;3.83;;;1.75;;
47617;SDS011;33336;36.728;-4.414;2022-10-14T03:02:02;4.75;;;1.73;;
47617;SDS011;33336;36.728;-4.414;2022-10-14T03:07:04;6.00;;;1.67;;
47617;SDS011;33336;36.728;-4.414;2022-10-14T03:12:07;5.78;;;1.60;;
47617;SDS011;33336;36.728;-4.414;2022-10-14T03:17:11;4.10;;;1.63;;
47617;SDS011;33336;36.728;-4.414;2022-10-14T03:22:14;3.05;;;1.60;;
47617;SDS011;33336;36.728;-4.414;2022-10-14T03:27:17;7.68;;;1.67;;
47617;SDS011;33336;36.728;-4.414;2022-10-14T03:32:21;10.45;;;2.53;;
47617;SDS011;33336;36.728;-4.414;2022-10-14T03:37:24;4.30;;;1.92;;
47617;SDS011;33336;36.728;-4.414;2022-10-14T03:42:27;5.53;;;1.73;;
47617;SDS011;33336;36.728;-4.414;2022-10-14T03:47:31;5.47;;;1.73;;
47617;SDS011;33336;36.728;-4.414;2022-10-14T03:52:35;4.97;;;2.50;;
47617;SDS011;33336;36.728;-4.414;2022-10-14T03:57:39;4.07;;;2.17;;
47617;SDS011;33336;36.728;-4.414;2022-10-14T04:02:45;3.38;;;1.95;;
47617;SDS011;33336;36.728;-4.414;2022-10-14T04:07:47;7.20;;;1.83;;
47617;SDS011;33336;36.728;-4.414;2022-10-14T04:12:51;4.70;;;2.22;;
47617;SDS011;33336;36.728;-4.414;2022-10-14T04:17:56;7.20;;;1.90;;
47617;SDS011;33336;36.728;-4.414;2022-10-14T04:22:59;5.55;;;1.92;;
47617;SDS011;33336;36.728;-4.414;2022-10-14T04:28:02;9.85;;;1.98;;
47617;SDS011;33336;36.728;-4.414;2022-10-14T04:33:07;7.32;;;2.30;;
47617;SDS011;33336;36.728;-4.414;2022-10-14T04:38:09;4.00;;;1.90;;
47617;SDS011;33336;36.728;-4.414;2022-10-14T04:43:13;5.25;;;2.17;;
47617;SDS011;33336;36.728;-4.414;2022-10-14T04:48:17;3.03;;;1.92;;
47617;SDS011;33336;36.728;-4.414;2022-10-14T04:53:21;8.05;;;2.20;;
47617;SDS011;33336;36.728;-4.414;2022-10-14T04:58:24;4.18;;;1.75;;
47617;SDS011;33336;36.728;-4.414;2022-10-14T05:03:29;6.45;;;2.15;;
47617;SDS011;33336;36.728;-4.414;2022-10-14T05:08:31;7.00;;;1.88;;
47617;SDS011;33336;36.728;-4.414;2022-10-14T05:13:34;5.75;;;2.25;;
47617;SDS011;33336;36.728;-4.414;2022-10-14T05:18:39;4.72;;;1.95;;
47617;SDS011;33336;36.728;-4.414;2022-10-14T05:23:42;6.80;;;2.30;;
47617;SDS011;33336;36.728;-4.414;2022-10-14T05:28:45;7.57;;;2.55;;
47617;SDS011;33336;36.728;-4.414;2022-10-14T05:33:51;7.75;;;2.60;;
47617;SDS011;33336;36.728;-4.414;2022-10-14T05:38:54;5.20;;;2.38;;
47617;SDS011;33336;36.728;-4.414;2022-10-14T05:43:58;6.38;;;2.03;;
47617;SDS011;33336;36.728;-4.414;2022-10-14T05:49:02;7.85;;;2.42;;
47617;SDS011;33336;36.728;-4.414;2022-10-14T05:54:06;7.60;;;2.30;;
47617;SDS011;33336;36.728;-4.414;2022-10-14T05:59:09;4.80;;;2.10;;
47617;SDS011;33336;36.728;-4.414;2022-10-14T06:04:17;3.63;;;2.35;;
47617;SDS011;33336;36.728;-4.414;2022-10-14T06:09:21;10.13;;;2.40;;
47617;SDS011;33336;36.728;-4.414;2022-10-14T06:14:24;6.22;;;2.58;;
47617;SDS011;33336;36.728;-4.414;2022-10-14T06:19:29;5.60;;;2.28;;
47617;SDS011;33336;36.728;-4.414;2022-10-14T06:24:32;6.15;;;2.45;;
47617;SDS011;33336;36.728;-4.414;2022-10-14T06:29:35;5.63;;;2.00;;
47617;SDS011;33336;36.728;-4.414;2022-10-14T06:34:41;6.53;;;2.20;;
47617;SDS011;33336;36.728;-4.414;2022-10-14T06:39:43;7.07;;;2.20;;
47617;SDS011;33336;36.728;-4.414;2022-10-14T06:44:47;3.75;;;2.25;;
47617;SDS011;33336;36.728;-4.414;2022-10-14T06:49:51;6.05;;;2.55;;
47617;SDS011;33336;36.728;-4.414;2022-10-14T06:54:54;6.50;;;2.38;;
47617;SDS011;33336;36.728;-4.414;2022-10-14T06:59:57;12.23;;;2.70;;
47617;SDS011;33336;36.728;-4.414;2022-10-14T07:05:02;4.22;;;2.00;;
47617;SDS011;33336;36.728;-4.414;2022-10-14T07:10:05;7.38;;;2.25;;
47617;SDS011;33336;36.728;-4.414;2022-10-14T07:15:09;9.70;;;2.03;;
47617;SDS011;33336;36.728;-4.414;2022-10-14T07:20:13;6.05;;;2.58;;
47617;SDS011;33336;36.728;-4.414;2022-10-14T07:25:16;10.15;;;2.92;;
47617;SDS011;33336;36.728;-4.414;2022-10-14T07:30:19;12.15;;;2.90;;
47617;SDS011;33336;36.728;-4.414;2022-10-14T07:35:25;15.25;;;3.17;;
47617;SDS011;33336;36.728;-4.414;2022-10-14T07:40:28;9.63;;;3.72;;
47617;SDS011;33336;36.728;-4.414;2022-10-14T07:45:31;14.98;;;3.72;;
47617;SDS011;33336;36.728;-4.414;2022-10-14T07:50:37;8.88;;;2.80;;
47617;SDS011;33336;36.728;-4.414;2022-10-14T07:55:42;8.02;;;3.10;;
47617;SDS011;33336;36.728;-4.414;2022-10-14T08:00:51;10.50;;;3.03;;
47617;SDS011;33336;36.728;-4.414;2022-10-14T08:06:00;38.67;;;5.82;;
47617;SDS011;33336;36.728;-4.414;2022-10-14T08:11:05;33.17;;;5.45;;
47617;SDS011;33336;36.728;-4.414;2022-10-14T08:16:13;27.88;;;4.75;;
47617;SDS011;33336;36.728;-4.414;2022-10-14T08:21:20;11.48;;;4.13;;
47617;SDS011;33336;36.728;-4.414;2022-10-14T08:26:27;18.00;;;4.55;;
47617;SDS011;33336;36.728;-4.414;2022-10-14T08:31:32;19.00;;;3.20;;
47617;SDS011;33336;36.728;-4.414;2022-10-14T08:36:37;20.05;;;3.45;;
47617;SDS011;33336;36.728;-4.414;2022-10-14T08:41:48;5.70;;;2.15;;
47617;SDS011;33336;36.728;-4.414;2022-10-14T08:47:11;11.20;;;2.90;;
47617;SDS011;33336;36.728;-4.414;2022-10-14T08:52:17;10.27;;;3.03;;
47617;SDS011;33336;36.728;-4.414;2022-10-14T08:57:24;7.38;;;3.17;;
47617;SDS011;33336;36.728;-4.414;2022-10-14T09:02:33;9.85;;;3.25;;
47617;SDS011;33336;36.728;-4.414;2022-10-14T09:07:42;11.02;;;2.97;;
47617;SDS011;33336;36.728;-4.414;2022-10-14T09:12:47;6.63;;;2.70;;
47617;SDS011;33336;36.728;-4.414;2022-10-14T09:17:56;8.52;;;2.80;;
47617;SDS011;33336;36.728;-4.414;2022-10-14T09:23:11;7.63;;;2.72;;
47617;SDS011;33336;36.728;-4.414;2022-10-14T09:28:17;7.95;;;2.83;;
47617;SDS011;33336;36.728;-4.414;2022-10-14T09:33:21;8.27;;;2.80;;
47617;SDS011;33336;36.728;-4.414;2022-10-14T09:38:28;8.03;;;3.73;;
47617;SDS011;33336;36.728;-4.414;2022-10-14T09:43:31;5.60;;;2.58;;
47617;SDS011;33336;36.728;-4.414;2022-10-14T09:48:35;7.15;;;3.22;;
47617;SDS011;33336;36.728;-4.414;2022-10-14T09:53:44;6.30;;;2.97;;
47617;SDS011;33336;36.728;-4.414;2022-10-14T09:58:50;7.43;;;3.50;;
47617;SDS011;33336;36.728;-4.414;2022-10-14T10:04:04;8.93;;;2.80;;
47617;SDS011;33336;36.728;-4.414;2022-10-14T10:09:29;5.63;;;3.00;;
47617;SDS011;33336;36.728;-4.414;2022-10-14T10:14:33;8.40;;;2.72;;
47617;SDS011;33336;36.728;-4.414;2022-10-14T10:19:37;6.50;;;2.63;;
47617;SDS011;33336;36.728;-4.414;2022-10-14T10:24:45;4.53;;;2.58;;
47617;SDS011;33336;36.728;-4.414;2022-10-14T10:29:48;7.97;;;3.75;;
47617;SDS011;33336;36.728;-4.414;2022-10-14T10:35:06;9.07;;;3.30;;
47617;SDS011;33336;36.728;-4.414;2022-10-14T10:40:25;6.25;;;3.05;;
47617;SDS011;33336;36.728;-4.414;2022-10-14T10:45:36;9.98;;;3.42;;
47617;SDS011;33336;36.728;-4.414;2022-10-14T10:50:50;9.25;;;3.53;;
47617;SDS011;33336;36.728;-4.414;2022-10-14T10:56:02;5.40;;;2.33;;
47617;SDS011;33336;36.728;-4.414;2022-10-14T11:01:18;8.85;;;3.00;;
47617;SDS011;33336;36.728;-4.414;2022-10-14T11:06:37;8.32;;;3.10;;
47617;SDS011;33336;36.728;-4.414;2022-10-14T11:12:06;8.23;;;2.90;;
47617;SDS011;33336;36.728;-4.414;2022-10-14T11:17:17;7.65;;;2.75;;
47617;SDS011;33336;36.728;-4.414;2022-10-14T11:22:30;7.15;;;2.83;;
47617;SDS011;33336;36.728;-4.414;2022-10-14T11:27:53;7.47;;;2.88;;
47617;SDS011;33336;36.728;-4.414;2022-10-14T11:33:04;4.38;;;2.42;;
47617;SDS011;33336;36.728;-4.414;2022-10-14T11:38:18;12.25;;;3.28;;
47617;SDS011;33336;36.728;-4.414;2022-10-14T11:43:35;7.07;;;2.63;;
47617;SDS011;33336;36.728;-4.414;2022-10-14T11:48:50;6.88;;;2.50;;
47617;SDS011;33336;36.728;-4.414;2022-10-14T11:53:58;5.15;;;2.67;;
47617;SDS011;33336;36.728;-4.414;2022-10-14T11:59:10;9.48;;;2.70;;
47617;SDS011;33336;36.728;-4.414;2022-10-14T12:04:23;7.35;;;2.53;;
47617;SDS011;33336;36.728;-4.414;2022-10-14T12:09:32;7.22;;;2.40;;
47617;SDS011;33336;36.728;-4.414;2022-10-14T12:14:41;10.18;;;2.90;;
47617;SDS011;33336;36.728;-4.414;2022-10-14T12:19:48;4.53;;;2.33;;
47617;SDS011;33336;36.728;-4.414;2022-10-14T12:24:52;5.72;;;2.45;;
47617;SDS011;33336;36.728;-4.414;2022-10-14T12:29:58;7.90;;;2.80;;
47617;SDS011;33336;36.728;-4.414;2022-10-14T12:35:14;9.63;;;3.17;;
47617;SDS011;33336;36.728;-4.414;2022-10-14T12:40:53;6.32;;;2.70;;
47617;SDS011;33336;36.728;-4.414;2022-10-14T12:46:20;11.38;;;3.45;;
47617;SDS011;33336;36.728;-4.414;2022-10-14T12:51:23;7.60;;;2.45;;
47617;SDS011;33336;36.728;-4.414;2022-10-14T12:56:28;5.60;;;2.28;;
47617;SDS011;33336;36.728;-4.414;2022-10-14T13:01:35;8.47;;;3.10;;
47617;SDS011;33336;36.728;-4.414;2022-10-14T13:06:38;10.50;;;2.97;;
47617;SDS011;33336;36.728;-4.414;2022-10-14T13:11:42;6.03;;;2.25;;
47617;SDS011;33336;36.728;-4.414;2022-10-14T13:16:57;7.57;;;2.25;;
47617;SDS011;33336;36.728;-4.414;2022-10-14T13:22:00;7.22;;;2.53;;
47617;SDS011;33336;36.728;-4.414;2022-10-14T13:27:06;9.90;;;2.70;;
47617;SDS011;33336;36.728;-4.414;2022-10-14T13:32:19;8.13;;;2.05;;
47617;SDS011;33336;36.728;-4.414;2022-10-14T13:37:31;8.70;;;3.13;;
47617;SDS011;33336;36.728;-4.414;2022-10-14T13:42:36;6.57;;;2.67;;
47617;SDS011;33336;36.728;-4.414;2022-10-14T13:47:44;7.43;;;2.20;;
47617;SDS011;33336;36.728;-4.414;2022-10-14T13:52:51;6.68;;;2.55;;
47617;SDS011;33336;36.728;-4.414;2022-10-14T13:58:08;4.95;;;1.88;;
47617;SDS011;33336;36.728;-4.414;2022-10-14T14:03:16;6.53;;;2.33;;
47617;SDS011;33336;36.728;-4.414;2022-10-14T14:08:24;7.25;;;2.63;;
47617;SDS011;33336;36.728;-4.414;2022-10-14T14:13:30;9.07;;;2.78;;
47617;SDS011;33336;36.728;-4.414;2022-10-14T14:18:45;6.10;;;2.70;;
47617;SDS011;33336;36.728;-4.414;2022-10-14T14:23:49;5.50;;;2.17;;
47617;SDS011;33336;36.728;-4.414;2022-10-14T14:28:53;7.30;;;2.50;;
47617;SDS011;33336;36.728;-4.414;2022-10-14T14:33:58;8.40;;;2.00;;
47617;SDS011;33336;36.728;-4.414;2022-10-14T14:39:02;8.07;;;2.40;;
47617;SDS011;33336;36.728;-4.414;2022-10-14T14:44:05;5.82;;;1.98;;
47617;SDS011;33336;36.728;-4.414;2022-10-14T14:49:15;6.75;;;2.25;;
47617;SDS011;33336;36.728;-4.414;2022-10-14T14:54:23;5.32;;;1.95;;
47617;SDS011;33336;36.728;-4.414;2022-10-14T14:59:29;6.90;;;2.75;;
47617;SDS011;33336;36.728;-4.414;2022-10-14T15:04:36;5.90;;;1.65;;
47617;SDS011;33336;36.728;-4.414;2022-10-14T15:09:40;9.98;;;2.20;;
47617;SDS011;33336;36.728;-4.414;2022-10-14T15:14:45;6.38;;;2.10;;
47617;SDS011;33336;36.728;-4.414;2022-10-14T15:19:51;6.40;;;2.90;;
47617;SDS011;33336;36.728;-4.414;2022-10-14T15:25:02;6.82;;;1.88;;
47617;SDS011;33336;36.728;-4.414;2022-10-14T15:30:20;9.90;;;2.90;;
47617;SDS011;33336;36.728;-4.414;2022-10-14T15:35:32;5.03;;;1.85;;
47617;SDS011;33336;36.728;-4.414;2022-10-14T15:40:37;10.87;;;3.40;;
47617;SDS011;33336;36.728;-4.414;2022-10-14T15:45:41;9.15;;;2.17;;
47617;SDS011;33336;36.728;-4.414;2022-10-14T15:50:47;5.53;;;2.03;;
47617;SDS011;33336;36.728;-4.414;2022-10-14T15:55:51;4.20;;;1.97;;
47617;SDS011;33336;36.728;-4.414;2022-10-14T16:00:54;8.43;;;2.53;;
47617;SDS011;33336;36.728;-4.414;2022-10-14T16:05:58;7.68;;;1.92;;
47617;SDS011;33336;36.728;-4.414;2022-10-14T16:11:02;9.27;;;2.20;;
47617;SDS011;33336;36.728;-4.414;2022-10-14T16:16:07;7.82;;;2.13;;
47617;SDS011;33336;36.728;-4.414;2022-10-14T16:21:15;7.47;;;2.42;;
47617;SDS011;33336;36.728;-4.414;2022-10-14T16:26:18;8.80;;;2.42;;
47617;SDS011;33336;36.728;-4.414;2022-10-14T16:31:21;6.22;;;2.25;;
47617;SDS011;33336;36.728;-4.414;2022-10-14T16:36:26;9.27;;;2.17;;
47617;SDS011;33336;36.728;-4.414;2022-10-14T16:41:29;9.95;;;2.08;;
47617;SDS011;33336;36.728;-4.414;2022-10-14T16:46:32;5.30;;;2.47;;
47617;SDS011;33336;36.728;-4.414;2022-10-14T16:51:54;33.15;;;4.53;;
47617;SDS011;33336;36.728;-4.414;2022-10-14T16:56:57;23.40;;;3.28;;
47617;SDS011;33336;36.728;-4.414;2022-10-14T17:02:01;9.90;;;2.40;;
47617;SDS011;33336;36.728;-4.414;2022-10-14T17:07:06;10.82;;;3.30;;
47617;SDS011;33336;36.728;-4.414;2022-10-14T17:12:09;7.90;;;3.83;;
47617;SDS011;33336;36.728;-4.414;2022-10-14T17:17:12;7.68;;;2.30;;
47617;SDS011;33336;36.728;-4.414;2022-10-14T17:22:16;7.97;;;2.80;;
47617;SDS011;33336;36.728;-4.414;2022-10-14T17:27:20;6.88;;;2.50;;
47617;SDS011;33336;36.728;-4.414;2022-10-14T17:32:24;10.32;;;3.13;;
47617;SDS011;33336;36.728;-4.414;2022-10-14T17:37:29;12.90;;;3.35;;
47617;SDS011;33336;36.728;-4.414;2022-10-14T17:42:32;15.73;;;3.63;;
47617;SDS011;33336;36.728;-4.414;2022-10-14T17:47:35;21.35;;;4.00;;
47617;SDS011;33336;36.728;-4.414;2022-10-14T17:52:40;23.08;;;4.18;;
47617;SDS011;33336;36.728;-4.414;2022-10-14T18:02:47;15.68;;;3.35;;
47617;SDS011;33336;36.728;-4.414;2022-10-14T18:07:51;24.52;;;4.80;;
47617;SDS011;33336;36.728;-4.414;2022-10-14T18:12:55;9.40;;;3.10;;
47617;SDS011;33336;36.728;-4.414;2022-10-14T18:17:58;19.50;;;3.95;;
47617;SDS011;33336;36.728;-4.414;2022-10-14T18:23:03;23.35;;;3.65;;
47617;SDS011;33336;36.728;-4.414;2022-10-14T18:28:07;26.67;;;5.25;;
47617;SDS011;33336;36.728;-4.414;2022-10-14T18:33:10;7.35;;;3.75;;
47617;SDS011;33336;36.728;-4.414;2022-10-14T18:38:14;15.05;;;3.83;;
47617;SDS011;33336;36.728;-4.414;2022-10-14T18:43:17;23.27;;;5.32;;
47617;SDS011;33336;36.728;-4.414;2022-10-14T18:48:20;16.60;;;5.00;;
47617;SDS011;33336;36.728;-4.414;2022-10-14T18:53:26;21.00;;;4.63;;
47617;SDS011;33336;36.728;-4.414;2022-10-14T18:58:30;14.63;;;5.25;;
47617;SDS011;33336;36.728;-4.414;2022-10-14T19:03:35;11.75;;;4.80;;
47617;SDS011;33336;36.728;-4.414;2022-10-14T19:08:41;9.57;;;4.80;;
47617;SDS011;33336;36.728;-4.414;2022-10-14T19:13:47;14.05;;;5.00;;
47617;SDS011;33336;36.728;-4.414;2022-10-14T19:18:51;8.80;;;4.77;;
47617;SDS011;33336;36.728;-4.414;2022-10-14T19:23:58;9.38;;;5.10;;
47617;SDS011;33336;36.728;-4.414;2022-10-14T19:29:03;8.48;;;5.07;;
47617;SDS011;33336;36.728;-4.414;2022-10-14T19:34:09;8.77;;;4.95;;
47617;SDS011;33336;36.728;-4.414;2022-10-14T19:39:15;6.30;;;4.22;;
47617;SDS011;33336;36.728;-4.414;2022-10-14T19:44:19;12.35;;;4.38;;
47617;SDS011;33336;36.728;-4.414;2022-10-14T19:49:22;9.63;;;4.47;;
47617;SDS011;33336;36.728;-4.414;2022-10-14T19:54:26;11.32;;;5.18;;
47617;SDS011;33336;36.728;-4.414;2022-10-14T19:59:29;12.90;;;4.60;;
47617;SDS011;33336;36.728;-4.414;2022-10-14T20:04:32;10.35;;;4.35;;
47617;SDS011;33336;36.728;-4.414;2022-10-14T20:09:36;14.57;;;6.10;;
47617;SDS011;33336;36.728;-4.414;2022-10-14T20:14:40;12.57;;;4.40;;
47617;SDS011;33336;36.728;-4.414;2022-10-14T20:19:43;8.52;;;4.10;;
47617;SDS011;33336;36.728;-4.414;2022-10-14T20:24:47;13.65;;;4.50;;
47617;SDS011;33336;36.728;-4.414;2022-10-14T20:29:50;9.98;;;3.95;;
47617;SDS011;33336;36.728;-4.414;2022-10-14T20:34:53;19.15;;;3.75;;
47617;SDS011;33336;36.728;-4.414;2022-10-14T20:39:57;11.38;;;4.53;;
47617;SDS011;33336;36.728;-4.414;2022-10-14T20:45:01;6.63;;;3.53;;
47617;SDS011;33336;36.728;-4.414;2022-10-14T20:50:04;6.25;;;3.08;;
47617;SDS011;33336;36.728;-4.414;2022-10-14T20:55:10;10.40;;;4.72;;
47617;SDS011;33336;36.728;-4.414;2022-10-14T21:00:13;7.28;;;3.78;;
47617;SDS011;33336;36.728;-4.414;2022-10-14T21:05:17;6.18;;;3.30;;
47617;SDS011;33336;36.728;-4.414;2022-10-14T21:10:21;5.82;;;3.08;;
47617;SDS011;33336;36.728;-4.414;2022-10-14T21:15:25;7.28;;;2.65;;
47617;SDS011;33336;36.728;-4.414;2022-10-14T21:20:28;5.82;;;3.10;;
47617;SDS011;33336;36.728;-4.414;2022-10-14T21:25:32;5.13;;;2.95;;
47617;SDS011;33336;36.728;-4.414;2022-10-14T21:30:38;8.38;;;2.90;;
47617;SDS011;33336;36.728;-4.414;2022-10-14T21:35:42;6.13;;;3.37;;
47617;SDS011;33336;36.728;-4.414;2022-10-14T21:40:47;9.25;;;3.63;;
47617;SDS011;33336;36.728;-4.414;2022-10-14T21:45:50;7.55;;;2.92;;
47617;SDS011;33336;36.728;-4.414;2022-10-14T21:50:59;4.75;;;2.90;;
47617;SDS011;33336;36.728;-4.414;2022-10-14T21:56:05;8.07;;;3.10;;
47617;SDS011;33336;36.728;-4.414;2022-10-14T22:01:09;5.38;;;2.55;;
47617;SDS011;33336;36.728;-4.414;2022-10-14T22:06:15;9.65;;;2.47;;
47617;SDS011;33336;36.728;-4.414;2022-10-14T22:11:20;8.27;;;2.88;;
47617;SDS011;33336;36.728;-4.414;2022-10-14T22:16:27;4.95;;;2.25;;
47617;SDS011;33336;36.728;-4.414;2022-10-14T22:21:31;7.60;;;2.38;;
47617;SDS011;33336;36.728;-4.414;2022-10-14T22:26:38;5.65;;;2.17;;
47617;SDS011;33336;36.728;-4.414;2022-10-14T22:31:41;5.13;;;1.80;;
47617;SDS011;33336;36.728;-4.414;2022-10-14T22:36:45;5.03;;;2.15;;
47617;SDS011;33336;36.728;-4.414;2022-10-14T22:41:49;4.45;;;1.98;;
47617;SDS011;33336;36.728;-4.414;2022-10-14T22:46:53;8.35;;;2.40;;
47617;SDS011;33336;36.728;-4.414;2022-10-14T22:51:56;5.68;;;1.88;;
47617;SDS011;33336;36.728;-4.414;2022-10-14T22:57:00;3.53;;;1.75;;
47617;SDS011;33336;36.728;-4.414;2022-10-14T23:02:03;5.25;;;2.20;;
47617;SDS011;33336;36.728;-4.414;2022-10-14T23:07:07;4.60;;;1.42;;
47617;SDS011;33336;36.728;-4.414;2022-10-14T23:12:11;5.75;;;1.50;;
47617;SDS011;33336;36.728;-4.414;2022-10-14T23:17:14;4.38;;;1.60;;
47617;SDS011;33336;36.728;-4.414;2022-10-14T23:22:17;2.55;;;1.13;;
47617;SDS011;33336;36.728;-4.414;2022-10-14T23:27:21;3.58;;;1.60;;
47617;SDS011;33336;36.728;-4.414;2022-10-14T23:32:24;4.30;;;1.60;;
47617;SDS011;33336;36.728;-4.414;2022-10-14T23:37:27;3.95;;;1.30;;
47617;SDS011;33336;36.728;-4.414;2022-10-14T23:42:32;2.95;;;1.02;;
47617;SDS011;33336;36.728;-4.414;2022-10-14T23:47:35;4.32;;;1.50;;
47617;SDS011;33336;36.728;-4.414;2022-10-14T23:52:39;3.88;;;1.20;;
47617;SDS011;33336;36.728;-4.414;2022-10-14T23:57:43;5.22;;;1.83;;
